Time;durP1;ratioP1;P1;durP2;ratioP2;P2;SDS_P1;SDS_P2;PMS_P1;PMS_P2;Temp;Humidity;BMP_temperature;BMP_pressure;BME280_temperature;BME280_humidity;BME280_pressure;Samples;Min_cycle;Max_cycle;Signal;HPM_P1;HPM_P2
2022/03/23 00:02:09;;;;;;;;;;;6.00;52.10;;;;;;5032389;28;19959;-87
2022/03/23 00:04:34;;;;;;;;;;;6.00;50.60;;;;;;5032612;28;19909;-88
2022/03/23 00:07:00;;;;;;;;;;;5.90;51.20;;;;;;5032532;28;20309;-87
2022/03/23 00:09:26;;;;;;;;;;;5.80;51.80;;;;;;5014837;28;19910;-87
2022/03/23 00:11:52;;;;;;;;;;;5.60;52.40;;;;;;5032317;28;19913;-88
2022/03/23 00:14:18;;;;;;;;;;;5.60;52.80;;;;;;5033162;28;19910;-88
2022/03/23 00:16:44;;;;;;;;;;;5.50;51.90;;;;;;5036134;28;20274;-88
2022/03/23 00:19:09;;;;;;;;;;;5.50;51.50;;;;;;5036126;28;19917;-87
2022/03/23 00:21:36;;;;;;;;;;;5.50;51.30;;;;;;5036070;28;19959;-88
2022/03/23 00:24:01;;;;;;;;;;;5.50;51.30;;;;;;5035765;28;19909;-88
2022/03/23 00:26:27;;;;;;;;;;;5.50;51.60;;;;;;5036269;28;20012;-88
2022/03/23 00:28:54;;;;;;;;;;;5.40;52.80;;;;;;5035869;28;19909;-88
2022/03/23 00:31:20;;;;;;;;;;;5.40;54.30;;;;;;5036034;28;19940;-88
2022/03/23 00:33:47;;;;;;;;;;;5.30;55.60;;;;;;5035882;28;19992;-88
2022/03/23 00:36:12;;;;;;;;;;;5.40;56.80;;;;;;5035724;28;19960;-88
2022/03/23 00:38:38;;;;;;;;;;;5.30;55.70;;;;;;5035770;28;19909;-87
2022/03/23 00:41:04;;;;;;;;;;;5.30;56.10;;;;;;5035460;28;19936;-88
2022/03/23 00:43:29;;;;;;;;;;;5.30;55.50;;;;;;5035650;28;19910;-87
2022/03/23 00:45:55;;;;;;;;;;;5.30;56.00;;;;;;5035475;28;19909;-87
2022/03/23 00:48:21;;;;;;;;;;;5.20;57.30;;;;;;5035544;28;19959;-88
2022/03/23 00:50:46;;;;;;;;;;;5.20;56.70;;;;;;5035556;28;20294;-88
2022/03/23 00:53:12;;;;;;;;;;;5.20;55.80;;;;;;5035226;28;20390;-88
2022/03/23 00:55:39;;;;;;;;;;;5.10;55.90;;;;;;5035176;28;19960;-88
2022/03/23 00:58:05;;;;;;;;;;;5.20;58.00;;;;;;5035219;28;19909;-88
2022/03/23 01:00:31;;;;;;;;;;;5.30;56.90;;;;;;5035371;28;20306;-87
2022/03/23 01:02:56;;;;;;;;;;;5.20;55.50;;;;;;5035300;28;20367;-88
2022/03/23 01:05:22;;;;;;;;;;;5.10;56.90;;;;;;5035529;28;20091;-88
2022/03/23 01:07:47;;;;;;;;;;;5.10;56.80;;;;;;5035018;28;19996;-88
2022/03/23 01:10:13;;;;;;;;;;;5.10;57.00;;;;;;5035133;28;19909;-88
2022/03/23 01:12:40;;;;;;;;;;;5.00;56.90;;;;;;5035119;28;20008;-88
2022/03/23 01:15:07;;;;;;;;;;;5.00;58.30;;;;;;5035077;28;20020;-87
2022/03/23 01:17:32;;;;;;;;;;;5.00;59.00;;;;;;5035038;28;19996;-87
2022/03/23 01:19:58;;;;;;;;;;;5.00;58.00;;;;;;5017277;28;20340;-88
2022/03/23 01:22:23;;;;;;;;;;;5.00;58.40;;;;;;5034931;28;19931;-88
2022/03/23 01:24:49;;;;;;;;;;;4.90;58.70;;;;;;5034355;28;19921;-87
2022/03/23 01:27:14;;;;;;;;;;;4.90;59.10;;;;;;5034776;28;19910;-87
2022/03/23 01:29:40;;;;;;;;;;;4.80;59.70;;;;;;5034784;28;20011;-87
2022/03/23 01:32:06;;;;;;;;;;;4.70;59.90;;;;;;5017263;28;19952;-87
2022/03/23 01:34:31;;;;;;;;;;;4.70;60.30;;;;;;5034694;28;20016;-87
2022/03/23 01:36:57;;;;;;;;;;;4.60;60.50;;;;;;5034624;28;19913;-87
2022/03/23 01:39:22;;;;;;;;;;;4.60;60.20;;;;;;5034587;28;19916;-88
2022/03/23 01:41:48;;;;;;;;;;;4.50;60.10;;;;;;5034614;28;19910;-88
2022/03/23 01:44:15;;;;;;;;;;;4.60;60.20;;;;;;5034594;28;19924;-87
2022/03/23 01:46:59;;;;;;;;;;;4.70;60.30;;;;;;5034444;28;20302;-87
2022/03/23 01:49:25;;;;;;;;;;;4.50;60.90;;;;;;5034412;28;19916;-87
2022/03/23 01:51:51;;;;;;;;;;;4.50;60.90;;;;;;5034320;28;19909;-87
2022/03/23 01:54:16;;;;;;;;;;;4.50;60.20;;;;;;5034143;28;19964;-87
2022/03/23 01:56:42;;;;;;;;;;;4.50;59.60;;;;;;5034467;28;19968;-87
2022/03/23 01:59:08;;;;;;;;;;;4.50;60.30;;;;;;5034240;28;19996;-87
2022/03/23 02:01:35;;;;;;;;;;;4.50;60.30;;;;;;5034223;28;19909;-87
2022/03/23 02:04:00;;;;;;;;;;;4.40;60.80;;;;;;5034142;28;20306;-87
2022/03/23 02:06:26;;;;;;;;;;;4.40;62.10;;;;;;5033821;28;19943;-88
2022/03/23 02:08:52;;;;;;;;;;;4.20;62.90;;;;;;5033966;28;20359;-87
2022/03/23 02:11:17;;;;;;;;;;;4.20;62.80;;;;;;5034006;28;19916;-88
2022/03/23 02:13:43;;;;;;;;;;;4.20;63.90;;;;;;5033918;28;20364;-88
2022/03/23 02:16:09;;;;;;;;;;;4.10;64.30;;;;;;5034066;28;20335;-87
2022/03/23 02:18:35;;;;;;;;;;;4.10;64.70;;;;;;5034163;28;20439;-88
2022/03/23 02:21:01;;;;;;;;;;;4.10;65.80;;;;;;5033835;28;19975;-87
2022/03/23 02:23:27;;;;;;;;;;;4.10;65.70;;;;;;5033783;28;20308;-87
2022/03/23 02:25:58;;;;;;;;;;;4.10;65.10;;;;;;5034031;28;19909;-87
2022/03/23 02:28:24;;;;;;;;;;;4.10;65.40;;;;;;5033789;28;20607;-88
2022/03/23 02:30:50;;;;;;;;;;;4.20;65.30;;;;;;5033266;28;19920;-87
2022/03/23 02:33:19;;;;;;;;;;;4.20;65.50;;;;;;5033615;28;19910;-88
2022/03/23 02:35:45;;;;;;;;;;;4.10;65.80;;;;;;5033538;28;20356;-88
2022/03/23 02:38:10;;;;;;;;;;;4.20;65.00;;;;;;5032799;28;19909;-88
2022/03/23 02:40:36;;;;;;;;;;;4.20;64.60;;;;;;5033499;28;19909;-87
2022/03/23 02:43:01;;;;;;;;;;;4.20;64.80;;;;;;5033477;28;19917;-88
2022/03/23 02:45:27;;;;;;;;;;;4.20;65.10;;;;;;5033382;28;20039;-87
2022/03/23 02:47:52;;;;;;;;;;;4.10;65.90;;;;;;5033414;28;19947;-87
2022/03/23 02:50:18;;;;;;;;;;;3.90;65.10;;;;;;5033397;28;20279;-88
2022/03/23 03:03:55;;;;;;;;;;;2.70;70.60;;;;;;5053154;28;20421;-87
2022/03/23 03:06:21;;;;;;;;;;;2.50;73.50;;;;;;5053023;28;19909;-87
2022/03/23 03:08:49;;;;;;;;;;;2.20;72.10;;;;;;5057065;28;19915;-87
2022/03/23 03:11:16;;;;;;;;;;;2.00;72.50;;;;;;5073257;28;19992;-87
2022/03/23 03:13:42;;;;;;;;;;;1.70;76.40;;;;;;5073013;28;19917;-87
2022/03/23 03:16:07;;;;;;;;;;;1.80;78.20;;;;;;5072942;28;20302;-88
2022/03/23 03:18:33;;;;;;;;;;;1.90;77.40;;;;;;5072990;28;19916;-86
2022/03/23 03:21:00;;;;;;;;;;;1.90;77.70;;;;;;5064870;28;19920;-87
2022/03/23 03:23:26;;;;;;;;;;;2.00;78.00;;;;;;5052934;28;19909;-86
2022/03/23 04:05:04;;;;;;;;;;;2.40;69.90;;;;;;5131678;27;19912;-86
2022/03/23 04:27:59;;;;;;;;;;;1.90;72.20;;;;;;5102708;27;2004457;-86
2022/03/23 04:30:27;;;;;;;;;;;2.00;70.00;;;;;;5172954;27;19911;-86
2022/03/23 04:32:53;;;;;;;;;;;2.00;69.70;;;;;;5154480;27;19907;-87
2022/03/23 04:35:19;;;;;;;;;;;1.90;69.70;;;;;;5172931;27;19930;-87
2022/03/23 04:37:45;;;;;;;;;;;1.90;69.20;;;;;;5172925;27;19907;-87
2022/03/23 04:40:11;;;;;;;;;;;1.90;69.00;;;;;;5172868;27;19914;-87
2022/03/23 04:42:37;;;;;;;;;;;2.00;67.80;;;;;;5172820;27;19907;-87
2022/03/23 04:45:04;;;;;;;;;;;2.20;65.60;;;;;;5172734;27;20276;-87
2022/03/23 04:47:30;;;;;;;;;;;2.40;67.60;;;;;;5172631;27;20357;-87
2022/03/23 04:49:56;;;;;;;;;;;2.30;65.00;;;;;;5171919;27;19921;-87
2022/03/23 04:52:21;;;;;;;;;;;2.40;64.20;;;;;;5172601;27;19919;-86
2022/03/23 04:54:47;;;;;;;;;;;2.40;64.00;;;;;;5172576;27;19907;-87
2022/03/23 04:57:13;;;;;;;;;;;2.40;65.20;;;;;;5165782;27;20005;-87
